Terminal Aerodrome Forecast
Issued by NWS

Home | Current Version | Previous Version | Text Only | Print | Product List | Glossary On
Versions: 1 2 3 4 5 6 7 8 9 10 11 12 13 14 15 16 17 18
000
FTUS42 TJSJ 261100
TAFIST
TAF
TIST 261130Z 2612/2712 10011KT P6SM VCSH SCT025
     FM261400 10012G22KT P6SM SCT025
     FM262300 09010KT P6SM FEW025=

USA.gov is the U.S. government's official web portal to all federal, state and local government web resources and services.